Time;durP1;ratioP1;P1;durP2;ratioP2;P2;SDS_P1;SDS_P2;PMS_P1;PMS_P2;Temp;Humidity;BMP_temperature;BMP_pressure;BME280_temperature;BME280_humidity;BME280_pressure;Samples;Min_cycle;Max_cycle;Signal;HPM_P1;HPM_P2
2022/05/01 00:01:50;;;;;;;8.97;8.27;;;;;;;9.62;100.00;97333.13;5008645;28;20488;-58
2022/05/01 00:04:18;;;;;;;8.10;7.37;;;;;;;9.65;100.00;97331.94;5042247;28;20281;-57
2022/05/01 00:06:47;;;;;;;7.93;7.33;;;;;;;9.59;100.00;97348.50;5009529;28;20822;-51
2022/05/01 00:09:15;;;;;;;8.60;7.90;;;;;;;9.53;100.00;97340.28;5044282;28;20467;-54
2022/05/01 00:11:43;;;;;;;8.40;7.70;;;;;;;9.55;100.00;97337.47;5021838;28;20757;-53
2022/05/01 00:14:11;;;;;;;9.10;8.50;;;;;;;9.57;100.00;97335.47;5029995;28;20215;-54
2022/05/01 00:16:39;;;;;;;8.87;7.97;;;;;;;9.52;100.00;97340.47;5005949;28;20277;-53
2022/05/01 00:22:41;;;;;;;8.20;7.50;;;;;;;9.46;100.00;97333.19;4997504;28;20211;-57
2022/05/01 00:25:10;;;;;;;9.00;8.20;;;;;;;9.49;100.00;97333.69;5045171;28;20299;-50
2022/05/01 00:27:38;;;;;;;9.40;8.50;;;;;;;9.44;100.00;97333.38;5025805;28;20781;-53
2022/05/01 00:30:07;;;;;;;7.97;7.27;;;;;;;9.42;100.00;97327.44;5029341;28;20227;-55
2022/05/01 00:38:01;;;;;;;8.10;7.40;;;;;;;9.40;100.00;97329.44;5019371;28;20467;-53
2022/05/01 00:40:29;;;;;;;8.37;7.70;;;;;;;9.34;100.00;97319.56;5025643;28;20785;-52
2022/05/01 00:43:01;;;;;;;8.90;8.30;;;;;;;9.26;100.00;97326.50;5026182;28;20321;-53
2022/05/01 00:45:29;;;;;;;8.77;7.97;;;;;;;9.21;100.00;97326.19;5028780;28;20199;-51
2022/05/01 00:47:58;;;;;;;8.63;7.97;;;;;;;9.19;100.00;97322.09;4997230;28;20612;-55
2022/05/01 00:50:26;;;;;;;8.90;8.20;;;;;;;9.26;100.00;97318.56;5012542;28;20254;-57
2022/05/01 00:52:54;;;;;;;9.17;8.47;;;;;;;9.28;100.00;97318.41;5024674;28;20203;-57
2022/05/01 00:55:23;;;;;;;8.87;8.17;;;;;;;9.29;100.00;97325.34;5013434;28;20230;-55
2022/05/01 00:57:52;;;;;;;8.47;7.87;;;;;;;9.29;100.00;97322.72;5022924;28;20404;-55
2022/05/01 01:00:21;;;;;;;9.37;8.57;;;;;;;9.22;100.00;97327.84;5025343;28;20233;-56
2022/05/01 01:02:50;;;;;;;8.13;7.53;;;;;;;9.20;100.00;97327.19;4989628;28;20217;-56
2022/05/01 01:05:18;;;;;;;8.33;7.73;;;;;;;9.18;100.00;97331.84;5048665;28;20230;-58
2022/05/01 01:07:47;;;;;;;9.73;9.03;;;;;;;9.18;100.00;97339.75;5027185;28;20560;-59
2022/05/01 01:10:15;;;;;;;8.47;7.87;;;;;;;9.08;100.00;97339.16;5035087;28;21631;-59
2022/05/01 01:12:57;;;;;;;9.40;8.70;;;;;;;9.04;100.00;97336.00;5032319;28;20204;-58
2022/05/01 01:15:28;;;;;;;9.27;8.57;;;;;;;9.08;100.00;97332.03;5045677;28;20246;-57
2022/05/01 01:17:57;;;;;;;8.83;8.23;;;;;;;8.94;100.00;97333.59;4999098;28;20450;-53
2022/05/01 01:20:28;;;;;;;10.23;9.23;;;;;;;8.97;100.00;97329.75;5042209;28;20230;-59
2022/05/01 01:22:59;;;;;;;9.77;9.07;;;;;;;8.85;100.00;97328.50;5022208;28;20203;-55
2022/05/01 01:25:29;;;;;;;9.33;8.67;;;;;;;8.88;100.00;97330.78;5036216;28;20570;-57
2022/05/01 01:28:00;;;;;;;10.23;9.40;;;;;;;8.87;100.00;97323.84;5023385;28;20746;-56
2022/05/01 01:33:14;;;;;;;9.53;8.83;;;;;;;8.75;100.00;97320.75;4998265;28;20211;-57
2022/05/01 01:35:42;;;;;;;9.97;9.17;;;;;;;8.81;100.00;97328.00;5041495;28;20568;-55
2022/05/01 01:38:12;;;;;;;9.33;8.63;;;;;;;8.73;100.00;97334.13;5039284;28;20209;-54
2022/05/01 01:40:44;;;;;;;9.33;8.63;;;;;;;8.73;100.00;97336.78;5026697;28;20223;-58
2022/05/01 01:43:13;;;;;;;10.47;9.67;;;;;;;8.75;100.00;97326.88;5019804;28;20215;-55
2022/05/01 01:45:41;;;;;;;10.27;9.40;;;;;;;8.69;100.00;97327.50;5027484;28;20213;-54
2022/05/01 01:48:13;;;;;;;9.83;9.13;;;;;;;8.74;100.00;97334.94;4997060;28;22013;-57
2022/05/01 01:50:41;;;;;;;9.50;8.80;;;;;;;8.66;100.00;97331.34;5048461;28;20706;-53
2022/05/01 01:53:10;;;;;;;9.90;9.20;;;;;;;8.58;100.00;97334.00;5044233;28;20554;-53
2022/05/01 01:55:40;;;;;;;11.00;10.07;;;;;;;8.44;100.00;97332.81;5040311;28;20223;-55
2022/05/01 01:58:08;;;;;;;11.40;10.50;;;;;;;8.51;100.00;97338.28;5036194;28;20399;-55
2022/05/01 02:00:36;;;;;;;9.43;8.63;;;;;;;8.56;100.00;97337.78;5030838;28;20513;-57
2022/05/01 02:03:06;;;;;;;10.77;9.87;;;;;;;8.56;100.00;97337.78;5029391;28;20211;-52
2022/05/01 02:05:35;;;;;;;11.20;10.30;;;;;;;8.47;100.00;97336.94;4997276;28;20708;-57
2022/05/01 02:08:05;;;;;;;10.83;10.03;;;;;;;8.43;100.00;97344.38;5039694;28;20219;-54
2022/05/01 02:10:33;;;;;;;10.80;9.90;;;;;;;8.51;100.00;97346.19;5021806;28;20235;-59
2022/05/01 02:13:03;;;;;;;11.50;10.50;;;;;;;8.38;100.00;97342.22;5027460;28;20204;-58
2022/05/01 02:15:31;;;;;;;11.57;10.67;;;;;;;8.45;100.00;97342.38;5028072;28;20765;-57
2022/05/01 02:18:00;;;;;;;11.60;10.50;;;;;;;8.44;100.00;97337.25;5045339;28;20258;-57
2022/05/01 02:21:33;;;;;;;11.57;10.57;;;;;;;8.34;100.00;97343.56;5000592;28;20231;-58
2022/05/01 02:23:17;;;;;;;11.77;10.73;;;;;;;8.33;100.00;97338.41;5025427;28;20214;-57
2022/05/01 02:25:45;;;;;;;12.13;11.03;;;;;;;8.32;100.00;97339.41;5035472;28;20999;-56
2022/05/01 02:28:15;;;;;;;12.03;11.03;;;;;;;8.28;100.00;97338.09;5024644;28;20215;-58
2022/05/01 02:30:43;;;;;;;12.10;11.03;;;;;;;8.26;100.00;97339.09;5023134;28;20227;-59
2022/05/01 02:33:12;;;;;;;12.33;11.23;;;;;;;8.24;100.00;97341.06;5044535;28;20200;-55
2022/05/01 02:35:40;;;;;;;13.33;12.10;;;;;;;8.32;100.00;97332.31;4998200;28;20543;-55
2022/05/01 02:38:08;;;;;;;12.83;11.77;;;;;;;8.42;100.00;97334.81;5047574;28;20296;-58
2022/05/01 02:40:36;;;;;;;13.63;12.57;;;;;;;8.35;100.00;97332.00;5009711;28;20769;-55
2022/05/01 02:43:05;;;;;;;14.53;13.13;;;;;;;8.40;100.00;97331.50;5001440;28;21411;-56
2022/05/01 02:45:34;;;;;;;14.33;13.13;;;;;;;8.39;100.00;97328.03;5022389;28;20217;-57
2022/05/01 02:48:02;;;;;;;14.93;13.63;;;;;;;8.39;100.00;97329.88;5046318;28;20646;-54
2022/05/01 02:50:31;;;;;;;13.77;12.57;;;;;;;8.43;100.00;97331.16;4991597;28;20231;-57
2022/05/01 02:52:59;;;;;;;14.13;12.83;;;;;;;8.44;100.00;97330.19;5034845;28;20530;-55
2022/05/01 02:55:27;;;;;;;14.03;12.80;;;;;;;8.39;100.00;97333.31;5030478;28;20219;-55
2022/05/01 02:57:55;;;;;;;13.87;12.67;;;;;;;8.33;100.00;97333.97;5024380;28;20398;-57
2022/05/01 03:00:23;;;;;;;13.63;12.53;;;;;;;8.39;100.00;97332.50;5029164;28;20249;-55
2022/05/01 03:02:55;;;;;;;14.47;13.20;;;;;;;8.41;100.00;97335.78;5024868;28;20223;-57
2022/05/01 03:05:25;;;;;;;12.93;11.83;;;;;;;8.30;100.00;97325.56;5002487;28;20439;-59
2022/05/01 03:07:55;;;;;;;12.53;11.53;;;;;;;8.21;100.00;97327.41;5030407;28;20509;-55
2022/05/01 03:10:24;;;;;;;13.37;12.27;;;;;;;8.15;100.00;97328.06;5047429;28;20222;-57
2022/05/01 03:12:52;;;;;;;13.03;12.00;;;;;;;8.21;100.00;97330.84;5029710;28;20309;-57
2022/05/01 03:15:20;;;;;;;13.47;12.33;;;;;;;8.10;100.00;97325.91;5013904;28;20227;-57
2022/05/01 03:23:20;;;;;;;12.53;11.43;;;;;;;8.18;100.00;97335.66;5042365;28;20213;-57
2022/05/01 03:25:48;;;;;;;12.53;11.43;;;;;;;8.13;100.00;97332.66;5025786;28;20647;-54
2022/05/01 03:28:16;;;;;;;13.23;12.00;;;;;;;8.11;100.00;97327.56;5034802;28;20609;-56
2022/05/01 03:30:44;;;;;;;14.03;12.90;;;;;;;8.09;100.00;97330.34;5015642;28;20322;-58
2022/05/01 03:33:13;;;;;;;13.20;12.07;;;;;;;8.10;100.00;97328.53;5022233;28;20208;-59
2022/05/01 03:35:42;;;;;;;13.53;12.33;;;;;;;8.15;100.00;97330.69;5039639;28;20227;-58
2022/05/01 03:38:10;;;;;;;12.90;11.80;;;;;;;8.18;100.00;97335.66;4998430;28;20218;-56
2022/05/01 03:40:38;;;;;;;13.23;12.10;;;;;;;8.08;100.00;97333.97;5040670;28;20595;-54
2022/05/01 03:43:06;;;;;;;13.80;12.60;;;;;;;8.14;100.00;97335.13;5018328;28;20211;-54
2022/05/01 03:45:35;;;;;;;14.03;12.73;;;;;;;8.10;100.00;97331.19;5023914;28;20314;-59
2022/05/01 03:48:03;;;;;;;13.80;12.53;;;;;;;8.06;100.00;97328.03;5011749;28;20209;-59
2022/05/01 03:50:31;;;;;;;14.63;13.50;;;;;;;8.06;100.00;97333.31;5038098;28;20637;-53
2022/05/01 03:53:02;;;;;;;15.17;13.47;;;;;;;8.04;100.00;97329.19;4998100;28;20215;-56
2022/05/01 03:55:30;;;;;;;12.53;11.43;;;;;;;8.07;100.00;97329.69;5036425;28;20236;-52
2022/05/01 03:57:58;;;;;;;13.23;12.13;;;;;;;8.11;100.00;97331.00;5023877;28;20213;-56
2022/05/01 04:00:27;;;;;;;12.30;11.20;;;;;;;8.17;100.00;97334.00;5022256;28;20321;-57
2022/05/01 04:02:55;;;;;;;13.53;12.33;;;;;;;8.10;100.00;97333.81;5024589;28;20303;-59
2022/05/01 04:05:24;;;;;;;13.20;12.10;;;;;;;8.14;100.00;97345.69;5035875;28;20210;-55
2022/05/01 04:07:52;;;;;;;15.53;14.13;;;;;;;8.18;100.00;97336.44;4997499;28;20223;-56
2022/05/01 04:10:21;;;;;;;13.27;12.17;;;;;;;8.19;100.00;97340.75;5045259;28;20772;-56
2022/05/01 04:12:49;;;;;;;13.57;12.30;;;;;;;8.24;100.00;97335.78;5028845;28;20217;-56
2022/05/01 04:15:17;;;;;;;14.47;13.20;;;;;;;8.25;100.00;97334.78;5030135;28;20689;-54
2022/05/01 04:17:45;;;;;;;13.80;12.50;;;;;;;8.30;100.00;97336.13;5019563;28;20244;-59
2022/05/01 04:20:15;;;;;;;14.13;12.90;;;;;;;8.34;100.00;97332.97;5024942;28;20760;-57
2022/05/01 04:22:45;;;;;;;13.87;12.77;;;;;;;8.24;100.00;97332.34;5019684;28;20234;-57
2022/05/01 04:25:16;;;;;;;14.47;12.93;;;;;;;8.26;100.00;97339.09;5034407;28;20215;-56
2022/05/01 04:27:48;;;;;;;13.23;12.10;;;;;;;8.32;100.00;97345.53;5036745;28;20616;-59
2022/05/01 04:30:17;;;;;;;16.17;14.77;;;;;;;8.32;100.00;97339.41;5036033;28;21047;-56
2022/05/01 04:32:50;;;;;;;14.37;13.17;;;;;;;8.33;100.00;97344.53;5023050;28;20360;-58
2022/05/01 04:35:22;;;;;;;15.33;14.03;;;;;;;8.47;100.00;97343.06;5023177;28;20268;-55
2022/05/01 04:37:50;;;;;;;15.37;14.13;;;;;;;8.50;100.00;97345.38;5046974;28;20217;-56
2022/05/01 04:40:19;;;;;;;14.70;13.50;;;;;;;8.53;100.00;97338.97;5009038;28;20227;-54
2022/05/01 04:42:48;;;;;;;14.17;13.07;;;;;;;8.51;100.00;97341.75;5039830;28;20330;-55
2022/05/01 04:45:16;;;;;;;12.90;11.80;;;;;;;8.54;100.00;97343.25;5030693;28;20582;-55
2022/05/01 04:47:45;;;;;;;13.85;12.75;;;;;;;8.58;100.00;97343.72;5029714;28;21111;-58
2022/05/01 04:50:13;;;;;;;16.35;14.95;;;;;;;8.62;100.00;97347.66;5018880;28;20438;-59
2022/05/01 04:52:41;;;;;;;14.47;13.07;;;;;;;8.64;100.00;97340.41;5049010;28;20808;-57
2022/05/01 04:55:09;;;;;;;13.77;12.53;;;;;;;8.73;100.00;97344.69;5000247;28;20424;-56
2022/05/01 04:57:39;;;;;;;13.20;12.00;;;;;;;8.71;100.00;97344.00;5038843;28;20227;-57
2022/05/01 05:00:10;;;;;;;14.53;13.23;;;;;;;8.77;100.00;97343.38;5027559;28;20231;-56
2022/05/01 05:02:39;;;;;;;14.73;13.47;;;;;;;8.83;100.00;97350.63;5020749;28;20293;-57
2022/05/01 05:05:09;;;;;;;14.07;12.80;;;;;;;8.76;100.00;97351.44;5023707;28;20218;-58
2022/05/01 05:07:38;;;;;;;13.93;12.73;;;;;;;8.92;100.00;97347.94;5041626;28;20261;-58
2022/05/01 05:10:07;;;;;;;13.27;12.17;;;;;;;8.88;100.00;97349.28;4995802;28;20703;-58
2022/05/01 05:12:35;;;;;;;15.03;13.60;;;;;;;8.84;100.00;97348.78;5047256;28;20289;-58
2022/05/01 05:15:07;;;;;;;13.43;12.20;;;;;;;8.88;100.00;97351.94;5038816;28;20379;-57
2022/05/01 05:17:36;;;;;;;12.77;11.57;;;;;;;8.85;100.00;97354.91;5033945;28;20598;-56
2022/05/01 05:20:06;;;;;;;14.10;12.87;;;;;;;8.90;100.00;97360.50;5022001;28;20263;-58
2022/05/01 05:22:35;;;;;;;14.00;12.80;;;;;;;9.07;100.00;97367.38;5028288;28;20452;-60
2022/05/01 05:25:03;;;;;;;14.33;12.83;;;;;;;9.05;100.00;97363.28;5000854;28;20688;-58
2022/05/01 05:27:31;;;;;;;15.63;14.00;;;;;;;8.91;100.00;97364.78;5036720;28;20408;-59
2022/05/01 05:29:59;;;;;;;13.70;12.50;;;;;;;8.96;100.00;97367.75;5047166;28;20587;-55
2022/05/01 05:32:31;;;;;;;14.13;12.93;;;;;;;8.97;100.00;97372.88;5008372;28;20211;-57
2022/05/01 05:35:01;;;;;;;13.37;12.20;;;;;;;8.98;100.00;97374.53;5046290;28;20234;-57
2022/05/01 05:37:29;;;;;;;13.53;12.43;;;;;;;8.90;100.00;97376.38;5020721;28;20546;-56
2022/05/01 05:39:57;;;;;;;13.17;12.17;;;;;;;8.87;100.00;97377.50;5028122;28;20242;-57
2022/05/01 05:42:25;;;;;;;12.40;11.30;;;;;;;8.92;100.00;97371.72;5017134;28;20226;-58
2022/05/01 05:44:53;;;;;;;15.77;14.52;;;;;;;8.84;100.00;97372.56;5051264;28;20533;-59
2022/05/01 05:47:22;;;;;;;13.73;12.57;;;;;;;8.78;100.00;97373.25;5016804;28;20395;-60
2022/05/01 05:49:49;;;;;;;13.17;11.77;;;;;;;8.87;100.00;97372.22;5056104;28;20227;-56
2022/05/01 05:52:22;;;;;;;15.48;14.27;;;;;;;8.94;100.00;97377.66;5014861;28;21338;-58
2022/05/01 05:54:50;;;;;;;13.80;12.73;;;;;;;9.11;100.00;97381.09;5041977;28;20442;-58
2022/05/01 05:57:18;;;;;;;14.75;13.60;;;;;;;9.07;100.00;97382.44;5009108;28;20446;-53
2022/05/01 05:59:46;;;;;;;13.53;12.33;;;;;;;9.19;100.00;97377.63;5034084;28;20250;-58
2022/05/01 06:02:15;;;;;;;12.83;11.77;;;;;;;9.22;100.00;97371.97;5004171;28;20884;-59
2022/05/01 06:04:44;;;;;;;13.57;12.27;;;;;;;9.30;100.00;97376.44;5043963;28;20292;-59
2022/05/01 06:07:12;;;;;;;13.17;12.07;;;;;;;9.29;100.00;97380.88;5023244;28;20204;-59
2022/05/01 06:09:46;;;;;;;12.77;11.67;;;;;;;9.55;100.00;97379.78;5029133;28;21195;-57
2022/05/01 06:12:15;;;;;;;14.68;13.52;;;;;;;9.51;100.00;97381.94;4984611;28;20450;-54
2022/05/01 06:14:44;;;;;;;13.70;12.47;;;;;;;9.63;100.00;97382.38;5039981;28;20208;-59
2022/05/01 06:17:13;;;;;;;12.77;11.77;;;;;;;9.73;100.00;97384.81;5018393;28;20446;-58
2022/05/01 06:19:41;;;;;;;15.60;14.30;;;;;;;9.64;100.00;97383.19;5039535;28;20462;-57
2022/05/01 06:22:09;;;;;;;15.77;14.47;;;;;;;9.58;100.00;97392.66;5033165;28;20200;-58
2022/05/01 06:24:37;;;;;;;15.73;14.50;;;;;;;9.58;100.00;97389.19;5016085;28;20450;-62
2022/05/01 06:27:07;;;;;;;14.77;13.57;;;;;;;9.51;100.00;97384.59;5008989;28;20456;-59
2022/05/01 06:29:35;;;;;;;16.90;15.50;;;;;;;9.41;100.00;97386.63;5025912;28;20452;-62
2022/05/01 06:32:04;;;;;;;13.87;12.77;;;;;;;9.53;100.00;97390.53;5027969;28;20263;-59
2022/05/01 06:34:32;;;;;;;13.00;12.00;;;;;;;9.65;100.00;97396.25;5043381;28;20660;-58
2022/05/01 06:37:01;;;;;;;14.60;13.20;;;;;;;9.67;100.00;97390.81;5031763;28;20305;-59
2022/05/01 06:39:29;;;;;;;13.50;12.40;;;;;;;9.76;100.00;97386.28;5013913;28;20242;-60
2022/05/01 06:41:57;;;;;;;14.20;13.07;;;;;;;9.83;100.00;97392.53;5009551;28;20226;-61
2022/05/01 06:44:26;;;;;;;12.97;11.80;;;;;;;9.95;100.00;97395.59;5041762;28;20203;-57
2022/05/01 06:46:54;;;;;;;12.30;11.27;;;;;;;10.03;100.00;97392.09;5028364;28;20852;-58
2022/05/01 06:49:22;;;;;;;14.67;13.47;;;;;;;10.07;100.00;97391.56;5030639;28;20841;-57
2022/05/01 06:51:50;;;;;;;14.60;13.30;;;;;;;10.11;100.00;97399.97;5039348;28;20204;-60
2022/05/01 06:54:19;;;;;;;13.73;12.53;;;;;;;10.24;100.00;97404.69;5030866;28;20291;-58
2022/05/01 06:56:47;;;;;;;13.27;11.87;;;;;;;10.09;100.00;97392.22;5021983;28;20223;-60
2022/05/01 06:59:17;;;;;;;13.57;12.27;;;;;;;10.01;100.00;97396.75;5015047;28;20226;-60
2022/05/01 07:01:47;;;;;;;13.20;12.10;;;;;;;10.05;100.00;97387.44;5026054;28;20253;-58
2022/05/01 07:04:15;;;;;;;11.83;10.87;;;;;;;10.23;100.00;97400.41;5032099;28;20361;-59
2022/05/01 07:06:45;;;;;;;13.67;12.47;;;;;;;10.37;100.00;97396.97;5045406;28;20206;-61
2022/05/01 07:09:13;;;;;;;12.43;11.43;;;;;;;10.49;100.00;97401.91;5033205;28;20195;-56
2022/05/01 07:11:41;;;;;;;12.23;11.17;;;;;;;10.60;100.00;97406.78;5021787;28;20214;-57
2022/05/01 07:14:09;;;;;;;14.13;12.83;;;;;;;10.51;100.00;97405.19;5006862;28;20292;-55
2022/05/01 07:16:37;;;;;;;12.23;11.23;;;;;;;10.56;100.00;97411.59;5045734;28;21017;-64
2022/05/01 07:19:07;;;;;;;13.93;12.88;;;;;;;10.73;100.00;97402.69;5009856;28;20462;-61
2022/05/01 07:21:35;;;;;;;11.93;11.03;;;;;;;10.66;100.00;97399.94;5046911;28;20642;-57
2022/05/01 07:24:03;;;;;;;12.17;11.17;;;;;;;10.71;100.00;97405.53;5034366;28;20233;-59
2022/05/01 07:26:33;;;;;;;11.43;10.53;;;;;;;10.96;100.00;97407.91;4982904;28;20230;-58
2022/05/01 07:29:02;;;;;;;11.70;10.60;;;;;;;11.21;100.00;97415.63;5003492;28;20292;-56
2022/05/01 07:31:30;;;;;;;11.53;10.63;;;;;;;11.23;100.00;97408.31;5019534;28;20705;-61
2022/05/01 07:33:58;;;;;;;13.43;12.38;;;;;;;11.35;100.00;97412.16;5025094;28;20448;-57
2022/05/01 07:36:28;;;;;;;12.63;11.63;;;;;;;11.45;100.00;97409.22;5025641;28;20206;-59
2022/05/01 07:38:57;;;;;;;12.00;11.03;;;;;;;11.35;100.00;97406.03;5040335;28;20228;-58
2022/05/01 07:41:27;;;;;;;12.27;11.27;;;;;;;11.47;100.00;97409.88;5016082;28;20227;-59
2022/05/01 07:43:56;;;;;;;11.50;10.70;;;;;;;11.54;100.00;97408.13;5018371;28;20213;-59
2022/05/01 07:46:24;;;;;;;11.83;10.87;;;;;;;11.56;100.00;97407.94;5020768;28;20202;-57
2022/05/01 07:48:52;;;;;;;11.40;10.43;;;;;;;11.74;100.00;97402.25;5041763;28;20586;-60
2022/05/01 07:51:20;;;;;;;11.50;10.50;;;;;;;11.93;100.00;97403.50;5015321;28;20996;-57
2022/05/01 07:53:50;;;;;;;12.17;11.17;;;;;;;12.00;100.00;97404.41;5039604;28;20329;-57
2022/05/01 07:56:18;;;;;;;11.50;10.60;;;;;;;11.85;100.00;97399.09;5026457;28;20414;-59
2022/05/01 07:58:46;;;;;;;10.70;9.90;;;;;;;11.92;100.00;97408.97;5032052;28;20482;-60
2022/05/01 08:01:14;;;;;;;10.17;9.27;;;;;;;12.08;100.00;97402.63;5008580;28;20602;-57
2022/05/01 08:06:28;;;;;;;9.90;9.10;;;;;;;12.13;100.00;97402.94;5028957;28;20493;-56
2022/05/01 08:08:57;;;;;;;10.57;9.77;;;;;;;11.98;100.00;97401.09;5022998;28;20419;-59
2022/05/01 08:11:25;;;;;;;10.10;9.30;;;;;;;12.18;100.00;97402.34;5032754;28;20222;-54
2022/05/01 08:13:54;;;;;;;10.27;9.33;;;;;;;12.18;100.00;97395.22;5039065;28;20231;-58
2022/05/01 08:16:22;;;;;;;10.23;9.43;;;;;;;12.10;100.00;97387.34;5001696;28;20305;-57
2022/05/01 08:21:36;;;;;;;10.00;9.30;;;;;;;11.32;100.00;97388.66;5024933;28;20217;-55
2022/05/01 08:24:06;;;;;;;11.27;10.35;;;;;;;11.26;100.00;97387.56;5019054;28;20886;-58
2022/05/01 08:26:34;;;;;;;11.20;10.40;;;;;;;11.52;100.00;97385.44;5022839;28;20446;-54
2022/05/01 08:29:02;;;;;;;10.30;9.60;;;;;;;11.32;100.00;97383.34;5037000;28;20454;-54
2022/05/01 08:31:30;;;;;;;10.93;10.03;;;;;;;11.22;100.00;97382.81;5002388;28;20667;-56
2022/05/01 08:33:58;;;;;;;9.57;8.87;;;;;;;11.46;100.00;97376.38;5022360;28;20740;-54
2022/05/01 08:36:28;;;;;;;10.00;9.20;;;;;;;11.51;100.00;97371.34;5026061;28;20203;-60
2022/05/01 08:38:56;;;;;;;9.80;9.00;;;;;;;11.94;100.00;97377.78;5017429;28;20711;-53
2022/05/01 08:41:26;;;;;;;10.17;9.37;;;;;;;12.18;100.00;97378.44;5018109;28;20358;-56
2022/05/01 08:43:55;;;;;;;11.63;10.63;;;;;;;12.37;100.00;97387.59;5037319;28;20622;-56
2022/05/01 08:46:59;;;;;;;9.93;9.13;;;;;;;12.78;100.00;97391.44;4990445;28;20214;-54
2022/05/01 08:49:27;;;;;;;9.87;8.97;;;;;;;12.73;100.00;97395.50;5029039;28;20225;-57
2022/05/01 08:51:56;;;;;;;9.70;8.97;;;;;;;12.94;100.00;97401.78;5022575;28;20395;-57
2022/05/01 08:54:25;;;;;;;9.60;8.80;;;;;;;12.98;100.00;97400.38;5024111;28;20227;-54
2022/05/01 08:56:56;;;;;;;9.63;8.93;;;;;;;12.91;100.00;97390.72;5024417;28;20213;-55
2022/05/01 08:59:25;;;;;;;9.83;9.00;;;;;;;12.66;100.00;97388.47;5040275;28;20464;-57
2022/05/01 09:01:54;;;;;;;9.50;8.70;;;;;;;12.86;100.00;97388.63;4990257;28;25782;-53
2022/05/01 09:04:25;;;;;;;8.97;8.27;;;;;;;13.14;100.00;97388.59;5027146;28;20473;-52
2022/05/01 09:06:54;;;;;;;9.23;8.30;;;;;;;13.25;100.00;97381.91;5029665;28;20737;-53
2022/05/01 09:09:23;;;;;;;9.43;8.67;;;;;;;13.56;100.00;97379.84;5040485;28;20332;-51
2022/05/01 09:14:41;;;;;;;9.67;8.73;;;;;;;14.05;100.00;97388.63;5023771;28;20310;-53
2022/05/01 09:17:14;;;;;;;8.37;7.77;;;;;;;14.07;100.00;97389.22;5027357;28;20212;-57
2022/05/01 09:19:43;;;;;;;9.17;8.50;;;;;;;13.91;100.00;97387.75;4984657;28;20352;-57
2022/05/01 09:22:13;;;;;;;9.50;8.83;;;;;;;14.30;100.00;97388.88;5040492;28;20670;-55
2022/05/01 09:24:42;;;;;;;9.27;8.50;;;;;;;14.80;100.00;97393.03;5033246;28;20696;-59
2022/05/01 09:27:28;;;;;;;10.13;9.43;;;;;;;15.13;100.00;97397.50;5029453;28;20873;-59
2022/05/01 09:30:15;;;;;;;9.20;8.50;;;;;;;15.29;100.00;97393.56;5009355;28;20222;-57
2022/05/01 09:32:45;;;;;;;8.63;7.93;;;;;;;15.42;100.00;97390.03;5025027;28;20699;-59
2022/05/01 09:35:15;;;;;;;8.57;7.97;;;;;;;15.74;100.00;97381.31;5013072;28;20320;-56
2022/05/01 09:37:45;;;;;;;9.23;8.60;;;;;;;15.82;100.00;97382.91;5046051;28;20211;-57
2022/05/01 09:40:14;;;;;;;9.17;8.47;;;;;;;16.24;100.00;97385.19;5031109;28;20434;-58
2022/05/01 09:42:42;;;;;;;8.70;8.03;;;;;;;16.55;100.00;97383.53;5030053;28;20396;-60
2022/05/01 09:45:14;;;;;;;8.40;7.80;;;;;;;16.92;98.90;97380.97;5030452;28;20662;-55
2022/05/01 09:47:44;;;;;;;7.77;7.27;;;;;;;17.05;100.00;97385.41;5040795;28;20306;-58
2022/05/01 09:50:15;;;;;;;8.27;7.67;;;;;;;17.27;97.38;97380.47;4981220;28;20619;-59
2022/05/01 09:52:59;;;;;;;13.47;7.50;;;;;;;16.83;100.00;97379.59;5042592;28;20203;-59
2022/05/01 09:55:28;;;;;;;8.70;7.90;;;;;;;16.60;100.00;97375.69;5029106;28;20285;-58
2022/05/01 09:58:09;;;;;;;8.87;8.17;;;;;;;16.41;100.00;97372.94;5018612;28;20719;-57
2022/05/01 10:00:41;;;;;;;8.87;8.07;;;;;;;15.54;100.00;97381.41;5023824;28;20810;-56
2022/05/01 10:03:27;;;;;;;8.73;8.10;;;;;;;15.44;100.00;97376.50;5018925;28;21449;-58
2022/05/01 10:05:57;;;;;;;8.63;8.03;;;;;;;15.16;100.00;97377.59;5017141;28;20202;-57
2022/05/01 10:08:26;;;;;;;9.17;8.40;;;;;;;15.24;100.00;97380.03;5034738;28;20199;-56
2022/05/01 10:10:56;;;;;;;8.23;7.60;;;;;;;15.63;100.00;97374.78;5054469;28;20286;-60
2022/05/01 10:13:25;;;;;;;8.50;7.90;;;;;;;15.18;100.00;97372.88;5037149;28;20228;-59
2022/05/01 10:16:08;;;;;;;7.57;6.97;;;;;;;15.28;100.00;97362.56;5035875;28;20912;-57
2022/05/01 10:18:37;;;;;;;8.90;8.20;;;;;;;14.74;100.00;97365.34;5025177;28;20202;-57
2022/05/01 10:21:07;;;;;;;9.97;9.07;;;;;;;14.52;100.00;97359.38;5006453;28;20219;-60
2022/05/01 10:23:36;;;;;;;8.47;7.60;;;;;;;14.47;100.00;97359.97;5024893;28;20952;-56
2022/05/01 10:26:09;;;;;;;8.33;7.53;;;;;;;13.83;100.00;97351.50;5031003;28;20236;-56
2022/05/01 10:29:12;;;;;;;7.93;7.30;;;;;;;13.80;100.00;97351.88;5040404;28;20207;-58
2022/05/01 10:32:21;;;;;;;8.30;7.67;;;;;;;13.51;100.00;97347.66;5016591;28;20211;-60
2022/05/01 10:35:20;;;;;;;10.03;9.23;;;;;;;13.21;100.00;97347.91;4979710;28;20621;-56
2022/05/01 10:38:27;;;;;;;9.40;8.70;;;;;;;13.01;100.00;97341.47;5027893;28;20813;-62
2022/05/01 10:40:56;;;;;;;9.97;9.10;;;;;;;13.30;100.00;97334.25;5001837;28;20583;-60
2022/05/01 10:43:27;;;;;;;9.90;9.00;;;;;;;13.33;100.00;97335.72;5042226;28;20236;-58
2022/05/01 10:45:55;;;;;;;10.00;9.10;;;;;;;13.37;100.00;97328.13;5005080;28;20440;-58
2022/05/01 10:48:33;;;;;;;11.03;10.20;;;;;;;13.27;100.00;97336.50;5038729;28;20451;-55
2022/05/01 10:51:38;;;;;;;9.93;9.03;;;;;;;13.28;100.00;97330.16;4992495;28;20923;-53
2022/05/01 10:54:36;;;;;;;9.63;8.80;;;;;;;13.60;100.00;97325.19;5026654;28;20203;-55
2022/05/01 10:57:13;;;;;;;10.03;9.20;;;;;;;13.99;100.00;97331.63;5012381;28;20203;-54
2022/05/01 10:59:46;;;;;;;10.40;9.60;;;;;;;14.47;100.00;97337.84;5029542;28;21141;-54
2022/05/01 11:02:30;;;;;;;9.43;8.63;;;;;;;14.90;100.00;97329.41;5024564;28;20649;-57
2022/05/01 11:05:00;;;;;;;11.57;10.53;;;;;;;15.08;100.00;97332.47;5027574;28;20707;-55
2022/05/01 11:07:29;;;;;;;12.83;11.73;;;;;;;15.59;100.00;97331.66;4998342;28;20301;-55
2022/05/01 11:10:00;;;;;;;9.40;8.47;;;;;;;15.55;95.11;97330.44;5022712;28;20250;-54
2022/05/01 11:12:30;;;;;;;8.97;8.17;;;;;;;15.75;95.47;97326.88;4997969;28;20203;-58
2022/05/01 11:14:59;;;;;;;11.30;10.30;;;;;;;15.80;95.61;97332.38;5033951;28;20210;-58
2022/05/01 11:17:28;;;;;;;9.43;8.43;;;;;;;16.24;86.37;97327.19;5027660;28;20354;-57
2022/05/01 11:20:08;;;;;;;8.53;7.93;;;;;;;16.53;87.57;97324.09;5013572;28;20223;-59
2022/05/01 11:22:36;;;;;;;8.47;7.80;;;;;;;16.74;87.70;97322.88;5003115;28;20206;-59
2022/05/01 11:25:07;;;;;;;8.43;7.73;;;;;;;17.21;81.72;97327.78;5023402;28;20195;-57
2022/05/01 11:27:47;;;;;;;8.40;7.70;;;;;;;17.11;64.75;97331.00;5016766;28;20294;-55
2022/05/01 11:30:22;;;;;;;9.43;7.87;;;;;;;16.59;70.09;97324.03;5044516;28;21252;-59
2022/05/01 11:32:52;;;;;;;9.27;8.57;;;;;;;16.62;76.36;97328.13;5027607;28;20213;-56
2022/05/01 11:35:21;;;;;;;8.93;8.23;;;;;;;16.35;72.18;97326.50;5026948;28;20234;-56
2022/05/01 11:38:06;;;;;;;7.93;7.33;;;;;;;16.57;74.29;97330.66;5003767;28;20219;-58
2022/05/01 11:40:34;;;;;;;8.53;7.83;;;;;;;16.70;77.78;97317.16;5026820;28;20229;-60
2022/05/01 11:43:17;;;;;;;7.97;7.27;;;;;;;16.95;75.92;97323.50;5001289;28;20238;-54
2022/05/01 11:45:46;;;;;;;8.73;7.90;;;;;;;16.74;75.01;97315.66;5041235;28;20216;-58
2022/05/01 11:48:15;;;;;;;8.13;7.53;;;;;;;16.75;70.14;97313.81;5031283;28;20215;-58
2022/05/01 11:50:48;;;;;;;7.80;7.20;;;;;;;16.73;66.04;97321.25;5028945;28;20215;-54
2022/05/01 11:53:18;;;;;;;7.93;7.33;;;;;;;16.91;67.15;97318.59;5001422;28;20273;-58
2022/05/01 12:04:29;;;;;;;10.90;9.93;;;;;;;17.12;100.00;97313.06;5040883;28;20254;-57
2022/05/01 12:07:08;;;;;;;10.30;9.30;;;;;;;17.54;99.65;97313.19;5040247;28;20206;-59
2022/05/01 12:09:37;;;;;;;9.57;8.83;;;;;;;17.83;90.70;97302.69;4998701;28;20235;-59
2022/05/01 12:12:09;;;;;;;9.47;8.77;;;;;;;17.91;95.75;97310.41;5024288;28;20214;-54